createdAt,value
2022-09-06T00:00:32.415Z,37.77
2022-09-06T00:01:32.408Z,37.69
2022-09-06T00:02:32.445Z,38.14
2022-09-06T00:03:32.425Z,37.60
2022-09-06T00:04:32.417Z,39.57
2022-09-06T00:05:32.373Z,38.04
2022-09-06T00:06:32.363Z,37.81
2022-09-06T00:07:32.380Z,37.31
2022-09-06T00:08:32.355Z,37.39
2022-09-06T00:09:32.352Z,37.28
2022-09-06T00:10:32.356Z,37.12
2022-09-06T00:11:32.341Z,37.06
2022-09-06T00:12:32.359Z,37.11
2022-09-06T00:13:32.321Z,37.41
2022-09-06T00:14:32.788Z,37.01
2022-09-06T00:15:32.323Z,37.22
2022-09-06T00:16:32.378Z,37.77
2022-09-06T00:17:32.314Z,37.33
2022-09-06T00:18:32.289Z,37.21
2022-09-06T00:19:32.286Z,37.44
2022-09-06T00:20:32.277Z,37.56
2022-09-06T00:21:32.306Z,37.99
2022-09-06T00:22:32.260Z,37.87
2022-09-06T00:23:32.250Z,37.60
2022-09-06T00:24:32.243Z,38.24
2022-09-06T00:25:32.245Z,37.22
2022-09-06T00:26:32.253Z,37.09
2022-09-06T00:27:32.215Z,38.14
2022-09-06T00:28:32.221Z,37.75
2022-09-06T00:29:32.203Z,37.91
2022-09-06T00:30:32.204Z,37.59
2022-09-06T00:31:32.270Z,37.42
2022-09-06T00:32:32.204Z,37.28
2022-09-06T00:33:32.181Z,38.58
2022-09-06T00:34:32.182Z,37.38
2022-09-06T00:35:32.191Z,37.32
2022-09-06T00:36:32.167Z,37.54
2022-09-06T00:37:32.164Z,37.14
2022-09-06T00:38:32.157Z,37.27
2022-09-06T00:39:32.247Z,37.61
2022-09-06T00:40:32.129Z,36.73
2022-09-06T00:41:32.234Z,36.89
2022-09-06T00:42:32.115Z,36.88
2022-09-06T00:43:32.116Z,37.00
2022-09-06T00:44:32.110Z,37.30
2022-09-06T00:45:32.101Z,37.85
2022-09-06T00:46:32.175Z,39.85
2022-09-06T00:47:32.086Z,38.11
2022-09-06T00:48:32.079Z,37.01
2022-09-06T00:49:32.074Z,37.19
2022-09-06T00:50:32.076Z,37.30
2022-09-06T00:51:32.071Z,36.85
2022-09-06T00:52:32.049Z,37.46
2022-09-06T00:53:32.049Z,37.18
2022-09-06T00:54:32.039Z,38.16
2022-09-06T00:55:32.026Z,36.84
2022-09-06T00:56:32.050Z,36.87
2022-09-06T00:57:32.027Z,37.03
2022-09-06T00:58:32.016Z,39.51
2022-09-06T00:59:31.997Z,37.06
2022-09-06T01:00:31.988Z,36.91
2022-09-06T01:01:32.083Z,37.28
2022-09-06T01:02:32.114Z,36.73
2022-09-06T01:03:31.982Z,36.82
2022-09-06T01:04:31.968Z,37.28
2022-09-06T01:05:31.968Z,39.17
2022-09-06T01:06:31.975Z,36.93
2022-09-06T01:07:31.951Z,39.03
2022-09-06T01:08:31.946Z,37.14
2022-09-06T01:09:31.932Z,37.24
2022-09-06T01:10:31.931Z,37.17
2022-09-06T01:11:31.949Z,37.02
2022-09-06T01:12:31.917Z,37.14
2022-09-06T01:13:31.911Z,37.97
2022-09-06T01:14:31.977Z,36.98
2022-09-06T01:15:31.951Z,36.84
2022-09-06T01:16:31.904Z,36.96
2022-09-06T01:17:31.876Z,36.77
2022-09-06T01:18:31.870Z,36.94
2022-09-06T01:19:31.866Z,37.46
2022-09-06T01:20:31.853Z,38.61
2022-09-06T01:21:31.875Z,37.60
2022-09-06T01:22:31.849Z,37.08
2022-09-06T01:23:31.845Z,37.49
2022-09-06T01:24:31.836Z,37.31
2022-09-06T01:25:31.828Z,37.10
2022-09-06T01:26:31.837Z,37.18
2022-09-06T01:27:31.817Z,37.70
2022-09-06T01:28:31.811Z,36.95
2022-09-06T01:29:31.793Z,36.88
2022-09-06T01:30:31.794Z,37.02
2022-09-06T01:31:31.814Z,36.93
2022-09-06T01:32:31.787Z,37.85
2022-09-06T01:33:31.783Z,36.98
2022-09-06T01:34:31.762Z,37.00
2022-09-06T01:35:31.759Z,37.02
2022-09-06T01:36:31.770Z,36.99
2022-09-06T01:37:31.739Z,38.37
2022-09-06T01:38:31.737Z,37.08
2022-09-06T01:39:31.786Z,37.53
2022-09-06T01:40:31.734Z,40.69
2022-09-06T01:41:31.739Z,38.84
2022-09-06T01:42:31.711Z,37.06
2022-09-06T01:43:31.703Z,37.12
2022-09-06T01:44:31.689Z,37.87
2022-09-06T01:45:31.687Z,37.03
2022-09-06T01:46:31.932Z,37.16
2022-09-06T01:47:31.679Z,39.89
2022-09-06T01:48:31.669Z,38.63
2022-09-06T01:49:31.660Z,36.83
2022-09-06T01:50:31.661Z,37.17
2022-09-06T01:51:31.672Z,38.53
2022-09-06T01:52:31.643Z,38.90
2022-09-06T01:53:31.639Z,37.10
2022-09-06T01:54:31.631Z,36.98
2022-09-06T01:55:31.627Z,37.16
2022-09-06T01:56:31.640Z,37.29
2022-09-06T01:57:31.616Z,37.22
2022-09-06T01:58:31.599Z,37.64
2022-09-06T01:59:31.597Z,38.29
2022-09-06T02:00:31.597Z,38.19
2022-09-06T02:01:31.649Z,36.93
2022-09-06T02:02:31.661Z,39.77
2022-09-06T02:03:31.573Z,37.67
2022-09-06T02:04:31.562Z,37.25
2022-09-06T02:05:31.554Z,38.38
2022-09-06T02:06:31.565Z,37.32
2022-09-06T02:07:31.550Z,37.31
2022-09-06T02:08:31.530Z,37.39
2022-09-06T02:09:31.524Z,37.85
2022-09-06T02:10:31.526Z,39.72
2022-09-06T02:11:31.546Z,37.72
2022-09-06T02:12:31.515Z,38.01
2022-09-06T02:13:31.503Z,37.32
2022-09-06T02:14:31.487Z,37.38
2022-09-06T02:15:32.483Z,38.22
2022-09-06T02:16:31.585Z,38.24
2022-09-06T02:17:31.569Z,40.89
2022-09-06T02:18:31.467Z,38.56
2022-09-06T02:19:31.452Z,38.97
2022-09-06T02:20:31.451Z,37.48
2022-09-06T02:21:31.475Z,37.35
2022-09-06T02:22:31.439Z,38.46
2022-09-06T02:23:31.424Z,38.15
2022-09-06T02:24:31.428Z,38.11
2022-09-06T02:25:31.426Z,37.16
2022-09-06T02:26:31.431Z,37.19
2022-09-06T02:27:31.412Z,37.47
2022-09-06T02:28:31.395Z,37.38
2022-09-06T02:29:31.400Z,37.05
2022-09-06T02:30:31.472Z,37.35
2022-09-06T02:31:31.382Z,40.27
2022-09-06T02:32:31.364Z,37.97
2022-09-06T02:33:31.473Z,39.64
2022-09-06T02:34:31.379Z,40.17
2022-09-06T02:35:31.339Z,37.48
2022-09-06T02:36:31.369Z,37.73
2022-09-06T02:37:31.324Z,37.23
2022-09-06T02:38:31.339Z,38.51
2022-09-06T02:39:31.344Z,38.45
2022-09-06T02:40:31.320Z,37.92
2022-09-06T02:41:31.329Z,38.30
2022-09-06T02:42:31.306Z,37.65
2022-09-06T02:43:31.310Z,38.34
2022-09-06T02:44:31.277Z,38.83
2022-09-06T02:45:31.272Z,37.79
2022-09-06T02:46:31.323Z,37.66
2022-09-06T02:47:31.268Z,37.74
2022-09-06T02:48:31.245Z,37.68
2022-09-06T02:49:31.253Z,37.05
2022-09-06T02:50:31.235Z,37.13
2022-09-06T02:51:31.249Z,38.96
2022-09-06T02:52:31.222Z,38.52
2022-09-06T02:53:31.210Z,38.77
2022-09-06T02:54:31.207Z,40.08
2022-09-06T02:55:31.196Z,40.01
2022-09-06T02:56:31.206Z,37.65
2022-09-06T02:57:31.202Z,41.34
2022-09-06T02:58:31.248Z,38.90
2022-09-06T02:59:31.154Z,37.89
2022-09-06T03:00:31.163Z,38.55
2022-09-06T03:01:32.261Z,39.69
2022-09-06T03:02:31.199Z,41.55
2022-09-06T03:03:31.150Z,39.10
2022-09-06T03:04:31.145Z,38.80
2022-09-06T03:05:31.129Z,38.87
2022-09-06T03:06:31.146Z,40.21
2022-09-06T03:07:31.107Z,38.90
2022-09-06T03:08:31.107Z,38.36
2022-09-06T03:09:31.102Z,41.41
2022-09-06T03:10:31.103Z,38.04
2022-09-06T03:11:31.113Z,39.21
2022-09-06T03:12:31.078Z,41.18
2022-09-06T03:13:31.076Z,37.67
2022-09-06T03:14:31.064Z,40.59
2022-09-06T03:15:31.060Z,41.53
2022-09-06T03:16:31.104Z,39.39
2022-09-06T03:17:31.048Z,38.47
2022-09-06T03:18:31.046Z,38.94
2022-09-06T03:19:31.035Z,39.69
2022-09-06T03:20:35.056Z,40.47
2022-09-06T03:21:33.042Z,40.53
2022-09-06T03:22:31.016Z,41.97
2022-09-06T03:23:31.016Z,40.45
2022-09-06T03:24:31.053Z,38.93
2022-09-06T03:25:31.146Z,40.67
2022-09-06T03:26:31.004Z,38.82
2022-09-06T03:27:30.972Z,38.94
2022-09-06T03:28:30.976Z,41.52
2022-09-06T03:29:31.964Z,39.44
2022-09-06T03:30:30.978Z,41.05
2022-09-06T03:31:30.972Z,39.15
2022-09-06T03:32:30.939Z,39.13
2022-09-06T03:33:30.938Z,41.02
2022-09-06T03:34:30.933Z,41.49
2022-09-06T03:35:30.922Z,39.84
2022-09-06T03:36:30.931Z,40.59
2022-09-06T03:37:30.915Z,41.90
2022-09-06T03:38:30.908Z,41.74
2022-09-06T03:39:30.900Z,40.73
2022-09-06T03:40:30.884Z,40.48
2022-09-06T03:41:30.896Z,39.64
2022-09-06T03:42:30.865Z,40.06
2022-09-06T03:43:30.857Z,40.65
2022-09-06T03:44:30.861Z,40.79
2022-09-06T03:45:30.893Z,40.90
2022-09-06T03:46:30.906Z,39.41
2022-09-06T03:47:30.829Z,42.37
2022-09-06T03:48:30.824Z,41.92
2022-09-06T03:49:30.821Z,40.46
2022-09-06T03:50:30.816Z,40.16
2022-09-06T03:51:30.835Z,41.02
2022-09-06T03:52:30.806Z,40.31
2022-09-06T03:53:30.787Z,40.49
2022-09-06T03:54:30.787Z,43.29
2022-09-06T03:55:31.789Z,39.07
2022-09-06T03:56:30.791Z,39.50
2022-09-06T03:57:30.768Z,40.07
2022-09-06T03:58:30.765Z,39.64
2022-09-06T03:59:31.671Z,40.01
2022-09-06T04:00:30.748Z,40.35
2022-09-06T04:01:30.863Z,41.09
2022-09-06T04:02:30.752Z,38.45
2022-09-06T04:03:30.724Z,43.66
2022-09-06T04:04:30.720Z,41.98
2022-09-06T04:05:30.713Z,42.10
2022-09-06T04:06:30.705Z,39.61
2022-09-06T04:07:30.713Z,40.34
2022-09-06T04:08:30.692Z,40.19
2022-09-06T04:09:30.684Z,40.47
2022-09-06T04:10:30.684Z,41.85
2022-09-06T04:11:30.668Z,40.01
2022-09-06T04:12:30.680Z,39.71
2022-09-06T04:13:30.650Z,39.91
2022-09-06T04:14:30.644Z,38.15
2022-09-06T04:15:30.630Z,41.34
2022-09-06T04:16:30.645Z,42.38
2022-09-06T04:17:30.661Z,42.52
2022-09-06T04:18:30.709Z,39.85
2022-09-06T04:19:30.617Z,41.32
2022-09-06T04:20:30.606Z,40.16
2022-09-06T04:21:30.607Z,39.17
2022-09-06T04:22:30.611Z,41.88
2022-09-06T04:23:30.587Z,40.98
2022-09-06T04:24:30.589Z,41.38
2022-09-06T04:25:30.600Z,40.04
2022-09-06T04:26:30.568Z,40.12
2022-09-06T04:27:30.575Z,40.97
2022-09-06T04:28:30.557Z,41.30
2022-09-06T04:29:30.546Z,40.86
2022-09-06T04:30:30.545Z,42.33
2022-09-06T04:31:30.568Z,42.73
2022-09-06T04:32:30.541Z,43.54
2022-09-06T04:33:30.514Z,41.46
2022-09-06T04:34:30.506Z,42.21
2022-09-06T04:35:30.502Z,41.85
2022-09-06T04:36:30.510Z,43.34
2022-09-06T04:37:30.508Z,43.77
2022-09-06T04:38:30.494Z,47.06
2022-09-06T04:39:30.517Z,43.93
2022-09-06T04:40:30.473Z,43.17
2022-09-06T04:41:30.475Z,42.93
2022-09-06T04:42:30.476Z,42.84
2022-09-06T04:43:30.451Z,41.47
2022-09-06T04:44:30.466Z,42.20
2022-09-06T04:45:30.554Z,42.98
2022-09-06T04:46:30.438Z,42.23
2022-09-06T04:47:30.453Z,42.65
2022-09-06T04:48:30.437Z,42.67
2022-09-06T04:49:30.415Z,44.14
2022-09-06T04:50:30.411Z,47.30
2022-09-06T04:51:30.409Z,44.57
2022-09-06T04:52:30.495Z,44.19
2022-09-06T04:53:30.389Z,43.70
2022-09-06T04:54:30.385Z,44.04
2022-09-06T04:55:30.681Z,44.75
2022-09-06T04:56:30.428Z,46.32
2022-09-06T04:57:30.406Z,45.40
2022-09-06T04:58:30.360Z,43.46
2022-09-06T04:59:30.349Z,42.35
2022-09-06T05:00:30.334Z,42.57
2022-09-06T05:01:30.350Z,42.56
2022-09-06T05:02:30.385Z,44.46
2022-09-06T05:03:30.320Z,44.96
2022-09-06T05:04:30.301Z,42.52
2022-09-06T05:05:30.299Z,43.01
2022-09-06T05:06:30.303Z,42.49
2022-09-06T05:07:30.306Z,40.28
2022-09-06T05:08:30.278Z,42.69
2022-09-06T05:09:30.276Z,43.44
2022-09-06T05:10:30.271Z,42.37
2022-09-06T05:11:30.264Z,42.28
2022-09-06T05:12:30.270Z,42.60
2022-09-06T05:13:30.245Z,42.30
2022-09-06T05:14:30.253Z,43.28
2022-09-06T05:15:30.232Z,43.28
2022-09-06T05:16:30.279Z,43.95
2022-09-06T05:17:30.236Z,42.11
2022-09-06T05:18:30.437Z,43.62
2022-09-06T05:19:30.254Z,42.33
2022-09-06T05:20:30.279Z,42.27
2022-09-06T05:21:30.200Z,43.05
2022-09-06T05:22:30.223Z,43.08
2022-09-06T05:23:30.181Z,41.54
2022-09-06T05:24:30.184Z,42.18
2022-09-06T05:25:30.179Z,41.41
2022-09-06T05:26:30.168Z,43.25
2022-09-06T05:27:30.173Z,48.86
2022-09-06T05:28:30.147Z,44.65
2022-09-06T05:29:30.752Z,43.19
2022-09-06T05:30:31.140Z,43.60
2022-09-06T05:31:30.198Z,45.50
2022-09-06T05:32:30.134Z,45.03
2022-09-06T05:33:30.104Z,45.84
2022-09-06T05:34:30.104Z,44.10
2022-09-06T05:35:30.097Z,42.70
2022-09-06T05:36:30.134Z,44.59
2022-09-06T05:37:30.105Z,44.48
2022-09-06T05:38:30.166Z,42.36
2022-09-06T05:39:30.113Z,44.86
2022-09-06T05:40:30.077Z,43.23
2022-09-06T05:41:30.059Z,44.38
2022-09-06T05:42:30.068Z,45.00
2022-09-06T05:43:30.046Z,43.11
2022-09-06T05:44:30.038Z,43.79
2022-09-06T05:45:30.132Z,43.94
2022-09-06T05:46:30.020Z,42.47
2022-09-06T05:47:30.027Z,44.89
2022-09-06T05:48:34.621Z,43.54
2022-09-06T05:49:32.004Z,41.18
2022-09-06T05:50:29.996Z,42.27
2022-09-06T05:51:29.979Z,44.83
2022-09-06T05:52:29.991Z,40.58
2022-09-06T05:53:29.977Z,41.93
2022-09-06T05:54:29.972Z,42.56
2022-09-06T05:55:29.957Z,43.76
2022-09-06T05:56:29.964Z,42.47
2022-09-06T05:57:29.965Z,40.07
2022-09-06T05:58:29.936Z,42.68
2022-09-06T05:59:29.940Z,40.87
2022-09-06T06:00:29.920Z,44.17
2022-09-06T06:01:30.034Z,42.23
2022-09-06T06:02:30.012Z,40.41
2022-09-06T06:03:29.904Z,41.97
2022-09-06T06:04:29.897Z,44.77
2022-09-06T06:05:29.886Z,44.23
2022-09-06T06:06:29.876Z,42.18
2022-09-06T06:07:29.887Z,43.43
2022-09-06T06:08:29.871Z,42.88
2022-09-06T06:09:29.857Z,41.69
2022-09-06T06:10:29.856Z,40.80
2022-09-06T06:11:29.850Z,42.56
2022-09-06T06:12:29.862Z,41.96
2022-09-06T06:13:29.838Z,41.51
2022-09-06T06:14:29.825Z,41.45
2022-09-06T06:15:29.825Z,42.75
2022-09-06T06:16:29.867Z,40.94
2022-09-06T06:17:29.825Z,41.28
2022-09-06T06:18:29.798Z,42.31
2022-09-06T06:19:29.798Z,41.38
2022-09-06T06:20:29.801Z,39.41
2022-09-06T06:21:29.791Z,40.15
2022-09-06T06:22:29.806Z,42.39
2022-09-06T06:23:29.765Z,42.16
2022-09-06T06:24:30.733Z,42.68
2022-09-06T06:25:29.756Z,40.80
2022-09-06T06:26:29.752Z,42.58
2022-09-06T06:27:29.760Z,40.89
2022-09-06T06:28:29.739Z,42.53
2022-09-06T06:29:29.732Z,38.14
2022-09-06T06:30:29.742Z,40.29
2022-09-06T06:31:29.826Z,40.12
2022-09-06T06:32:29.734Z,39.82
2022-09-06T06:33:29.702Z,42.20
2022-09-06T06:34:29.703Z,41.24
2022-09-06T06:35:29.690Z,40.90
2022-09-06T06:36:29.667Z,38.92
2022-09-06T06:37:29.685Z,40.45
2022-09-06T06:38:29.758Z,41.84
2022-09-06T06:39:29.722Z,42.61
2022-09-06T06:40:29.641Z,41.83
2022-09-06T06:41:30.644Z,41.82
2022-09-06T06:42:29.663Z,40.05
2022-09-06T06:43:30.626Z,43.54
2022-09-06T06:44:29.618Z,40.86
2022-09-06T06:45:30.672Z,41.53
2022-09-06T06:46:29.627Z,40.83
2022-09-06T06:47:29.624Z,40.23
2022-09-06T06:48:29.580Z,40.87
2022-09-06T06:49:29.580Z,42.06
2022-09-06T06:50:29.578Z,42.56
2022-09-06T06:51:29.574Z,41.76
2022-09-06T06:52:29.578Z,42.28
2022-09-06T06:53:29.554Z,42.77
2022-09-06T06:54:29.539Z,41.15
2022-09-06T06:55:29.538Z,42.13
2022-09-06T06:56:29.548Z,39.69
2022-09-06T06:57:29.537Z,39.86
2022-09-06T06:58:29.519Z,41.29
2022-09-06T06:59:29.519Z,39.54
2022-09-06T07:00:29.517Z,42.09
2022-09-06T07:01:29.741Z,38.41
2022-09-06T07:02:29.547Z,41.83
2022-09-06T07:03:29.486Z,39.63
2022-09-06T07:04:29.474Z,41.12
2022-09-06T07:07:32.762Z,45.05
2022-09-06T07:08:29.443Z,40.37
2022-09-06T07:11:30.407Z,40.07
2022-09-06T07:12:29.423Z,42.03
2022-09-06T07:13:29.450Z,40.05
2022-09-06T07:14:29.408Z,38.10
2022-09-06T07:15:29.390Z,40.70
2022-09-06T07:16:29.542Z,39.65
2022-09-06T07:17:29.395Z,40.75
2022-09-06T07:18:29.358Z,40.46
2022-09-06T07:20:31.424Z,41.30
2022-09-06T07:22:31.362Z,38.98
2022-09-06T07:24:31.334Z,41.11
2022-09-06T07:25:29.332Z,39.10
2022-09-06T07:26:29.315Z,38.67
2022-09-06T07:28:31.299Z,46.22
2022-09-06T07:29:29.312Z,39.77
2022-09-06T07:30:29.286Z,39.96
2022-09-06T07:32:31.303Z,39.99
2022-09-06T07:33:29.342Z,39.67
2022-09-06T07:34:29.250Z,38.83
2022-09-06T07:35:29.245Z,40.97
2022-09-06T07:36:29.224Z,39.08
2022-09-06T07:37:29.416Z,40.00
2022-09-06T07:38:29.232Z,40.96
2022-09-06T07:39:29.277Z,39.38
2022-09-06T07:40:29.214Z,40.16
2022-09-06T07:41:29.207Z,40.07
2022-09-06T07:42:32.781Z,40.67
2022-09-06T07:43:30.188Z,39.00
2022-09-06T07:44:29.180Z,40.49
2022-09-06T07:45:29.178Z,39.18
2022-09-06T07:46:29.233Z,40.28
2022-09-06T07:48:31.175Z,40.98
2022-09-06T07:49:34.208Z,41.98
2022-09-06T07:50:47.413Z,40.97
